Time;durP1;ratioP1;P1;durP2;ratioP2;P2;SDS_P1;SDS_P2;PMS_P1;PMS_P2;Temp;Humidity;BMP_temperature;BMP_pressure;BME280_temperature;BME280_humidity;BME280_pressure;Samples;Min_cycle;Max_cycle;Signal;HPM_P1;HPM_P2
2022/08/25 00:02:02;;;;;;;1.33;0.60;;;10.90;99.90;;;;;;5032731;28;20037;-72
2022/08/25 00:04:29;;;;;;;2.88;0.60;;;11.00;99.90;;;;;;5033022;28;20091;-76
2022/08/25 00:06:57;;;;;;;0.30;0.30;;;11.00;99.90;;;;;;5030385;28;20020;-78
2022/08/25 00:09:26;;;;;;;1.05;0.57;;;11.10;99.90;;;;;;5032349;28;20025;-77
2022/08/25 00:11:55;;;;;;;1.63;0.63;;;11.20;99.90;;;;;;5032230;28;20013;-75
2022/08/25 00:14:29;;;;;;;1.30;0.40;;;11.20;99.90;;;;;;5030352;28;20038;-77
2022/08/25 00:16:58;;;;;;;0.57;0.43;;;11.20;99.90;;;;;;5031848;28;20103;-77
2022/08/25 00:19:30;;;;;;;0.88;0.47;;;11.20;99.90;;;;;;5032089;28;20033;-76
2022/08/25 00:21:59;;;;;;;2.17;0.57;;;11.30;99.90;;;;;;5031426;28;20403;-79
2022/08/25 00:24:27;;;;;;;1.27;0.55;;;11.40;99.90;;;;;;5032790;28;20066;-74
2022/08/25 00:26:56;;;;;;;0.98;0.65;;;11.50;99.90;;;;;;5032630;28;20033;-77
2022/08/25 00:29:25;;;;;;;6.65;1.00;;;11.60;99.90;;;;;;5032343;28;20421;-74
2022/08/25 00:31:53;;;;;;;1.30;0.60;;;11.80;99.90;;;;;;5033061;28;20025;-78
2022/08/25 00:34:24;;;;;;;1.23;0.70;;;11.90;99.90;;;;;;5031275;28;20033;-78
2022/08/25 00:36:53;;;;;;;0.93;0.60;;;12.00;99.90;;;;;;5032817;28;20026;-78
2022/08/25 00:39:23;;;;;;;3.20;0.70;;;12.20;99.90;;;;;;5014807;28;20025;-78
2022/08/25 00:41:52;;;;;;;3.08;0.80;;;12.20;99.90;;;;;;5032915;28;20037;-77
2022/08/25 00:44:20;;;;;;;1.15;0.65;;;12.30;99.90;;;;;;5030057;28;20056;-74
2022/08/25 00:46:53;;;;;;;0.70;0.50;;;12.30;99.90;;;;;;5032646;28;20068;-78
2022/08/25 00:49:53;;;;;;;0.70;0.50;;;12.40;99.90;;;;;;5030415;28;20021;-77
2022/08/25 00:52:26;;;;;;;5.88;0.80;;;12.50;99.90;;;;;;5029512;28;20475;-78
2022/08/25 00:55:01;;;;;;;1.08;0.57;;;12.50;99.90;;;;;;5031745;28;20033;-77
2022/08/25 00:57:35;;;;;;;1.67;0.70;;;12.50;99.90;;;;;;5034750;28;20471;-78
2022/08/25 01:00:18;;;;;;;3.60;0.65;;;12.60;99.90;;;;;;5034181;28;20026;-78
2022/08/25 01:02:45;;;;;;;2.28;0.63;;;12.70;99.90;;;;;;5042864;28;20041;-77
2022/08/25 01:05:13;;;;;;;0.55;0.32;;;12.80;99.90;;;;;;5031806;28;20517;-79
2022/08/25 01:07:42;;;;;;;0.93;0.47;;;12.90;99.90;;;;;;5034393;28;20444;-78
2022/08/25 01:10:12;;;;;;;3.22;0.60;;;13.00;99.90;;;;;;5037521;28;20431;-78
2022/08/25 01:12:40;;;;;;;0.65;0.50;;;13.10;99.90;;;;;;5044508;28;20079;-81
2022/08/25 01:15:13;;;;;;;2.15;0.70;;;13.10;99.90;;;;;;5042844;28;20838;-78
2022/08/25 01:17:51;;;;;;;1.95;0.63;;;13.30;99.90;;;;;;5033883;28;20045;-80
2022/08/25 01:20:22;;;;;;;3.45;0.57;;;13.40;99.90;;;;;;5032446;28;20037;-79
2022/08/25 01:22:51;;;;;;;1.75;0.57;;;13.60;99.90;;;;;;5033206;28;20044;-78
2022/08/25 01:25:59;;;;;;;0.55;0.30;;;13.80;99.90;;;;;;5044479;28;20032;-78
2022/08/25 01:28:27;;;;;;;0.43;0.30;;;13.90;99.90;;;;;;5015020;28;20083;-78
2022/08/25 01:30:54;;;;;;;0.40;0.40;;;13.90;99.90;;;;;;5042570;28;20474;-78
2022/08/25 01:33:22;;;;;;;0.38;0.20;;;14.00;99.90;;;;;;5044807;28;20037;-78
2022/08/25 01:35:50;;;;;;;0.73;0.40;;;14.10;99.90;;;;;;5035125;28;20124;-79
2022/08/25 01:38:19;;;;;;;1.20;0.22;;;14.10;99.90;;;;;;5047062;28;20386;-78
2022/08/25 01:40:47;;;;;;;0.90;0.22;;;14.20;99.90;;;;;;5015645;28;20501;-79
2022/08/25 01:43:16;;;;;;;0.43;0.40;;;14.40;99.90;;;;;;5033974;28;20029;-80
2022/08/25 01:45:47;;;;;;;0.10;0.10;;;14.40;99.90;;;;;;5033885;28;20063;-78
2022/08/25 01:48:16;;;;;;;1.83;0.40;;;14.40;99.90;;;;;;5031434;28;20033;-77
2022/08/25 01:50:44;;;;;;;2.85;0.20;;;14.50;99.90;;;;;;5033881;28;20017;-79
2022/08/25 01:53:24;;;;;;;0.45;0.30;;;14.60;99.90;;;;;;5030993;28;20479;-74
2022/08/25 01:55:51;;;;;;;0.20;0.20;;;14.60;99.90;;;;;;5034444;28;20032;-78
2022/08/25 01:58:32;;;;;;;0.75;0.30;;;14.60;99.90;;;;;;5035321;28;20028;-79
2022/08/25 02:01:03;;;;;;;0.63;0.30;;;14.70;99.90;;;;;;5032262;28;20026;-78
2022/08/25 02:03:31;;;;;;;0.85;0.30;;;14.60;99.90;;;;;;5032829;28;20081;-76
2022/08/25 02:06:00;;;;;;;0.50;0.20;;;14.70;99.90;;;;;;5037077;28;20116;-78
2022/08/25 02:08:27;;;;;;;0.20;0.20;;;14.70;99.90;;;;;;5036515;28;20025;-74
2022/08/25 02:10:55;;;;;;;0.40;0.30;;;14.70;99.90;;;;;;5035062;28;20034;-74
2022/08/25 02:13:24;;;;;;;0.50;0.40;;;14.70;99.90;;;;;;5028462;28;20021;-78
2022/08/25 02:15:55;;;;;;;0.40;0.30;;;14.70;99.90;;;;;;5034067;28;20029;-75
2022/08/25 02:18:23;;;;;;;0.30;0.30;;;14.80;99.90;;;;;;5034549;28;20019;-76
2022/08/25 02:20:51;;;;;;;4.75;0.30;;;14.80;99.90;;;;;;5032577;28;20049;-78
2022/08/25 02:23:19;;;;;;;0.38;0.30;;;14.90;99.90;;;;;;5036486;28;20036;-76
2022/08/25 02:25:47;;;;;;;2.65;0.28;;;14.80;99.90;;;;;;5040724;28;20053;-77
2022/08/25 02:28:15;;;;;;;1.48;0.40;;;14.90;99.90;;;;;;5036073;28;20021;-72
2022/08/25 02:30:43;;;;;;;0.35;0.30;;;14.90;99.90;;;;;;5033003;28;20017;-76
2022/08/25 02:33:11;;;;;;;0.32;0.30;;;14.90;99.90;;;;;;5033373;28;20063;-75
2022/08/25 02:35:39;;;;;;;0.30;0.30;;;14.90;99.90;;;;;;5035729;28;20438;-77
2022/08/25 02:38:07;;;;;;;0.20;0.20;;;14.90;99.90;;;;;;5037786;28;20029;-76
2022/08/25 02:40:34;;;;;;;6.93;0.32;;;14.80;99.90;;;;;;5032245;28;20100;-73
2022/08/25 02:43:02;;;;;;;0.20;0.20;;;14.90;99.90;;;;;;5035508;28;20017;-77
2022/08/25 02:45:30;;;;;;;0.32;0.30;;;14.90;99.90;;;;;;5034629;28;20025;-74
2022/08/25 02:47:58;;;;;;;0.22;0.20;;;14.90;99.90;;;;;;5033534;28;20021;-77
2022/08/25 02:50:26;;;;;;;0.28;0.22;;;14.90;99.90;;;;;;5038201;28;20055;-77
2022/08/25 02:52:53;;;;;;;0.60;0.30;;;14.90;99.90;;;;;;5035062;28;20037;-77
2022/08/25 02:55:22;;;;;;;0.30;0.15;;;15.00;99.90;;;;;;5035400;28;20440;-77
2022/08/25 02:57:50;;;;;;;0.43;0.20;;;15.00;99.90;;;;;;5034316;28;20108;-77
2022/08/25 03:00:18;;;;;;;0.20;0.20;;;15.00;99.90;;;;;;5033559;28;20037;-75
2022/08/25 03:02:46;;;;;;;0.30;0.20;;;15.00;99.90;;;;;;5032099;28;20042;-76
2022/08/25 03:05:18;;;;;;;0.10;0.10;;;15.00;99.90;;;;;;5034339;28;20053;-77
2022/08/25 03:07:45;;;;;;;0.50;0.25;;;15.10;99.90;;;;;;5033791;28;20124;-78
2022/08/25 03:10:17;;;;;;;0.30;0.20;;;15.10;99.90;;;;;;5033820;28;20036;-77
2022/08/25 03:12:46;;;;;;;0.52;0.20;;;15.00;99.90;;;;;;5032578;28;20018;-76
2022/08/25 03:15:15;;;;;;;0.20;0.20;;;15.10;99.90;;;;;;5032989;28;20025;-74
2022/08/25 03:17:48;;;;;;;0.20;0.20;;;15.10;99.90;;;;;;5032755;28;20021;-75
2022/08/25 03:20:16;;;;;;;0.17;0.17;;;15.30;99.90;;;;;;5030652;28;20019;-76
2022/08/25 03:22:44;;;;;;;0.80;0.20;;;15.30;99.90;;;;;;5035981;28;20387;-77
2022/08/25 03:27:57;;;;;;;0.10;0.10;;;15.30;99.90;;;;;;5039754;28;20028;-77
2022/08/25 03:30:26;;;;;;;0.20;0.20;;;15.20;99.90;;;;;;5052492;28;20152;-78
2022/08/25 03:32:54;;;;;;;0.73;0.13;;;15.20;99.90;;;;;;5050137;28;20052;-77
2022/08/25 03:35:23;;;;;;;0.38;0.20;;;15.20;99.90;;;;;;5034740;28;20432;-78
2022/08/25 03:37:54;;;;;;;0.20;0.20;;;15.30;99.90;;;;;;5045526;28;20435;-75
2022/08/25 03:40:22;;;;;;;0.38;0.15;;;15.20;99.90;;;;;;5029031;28;20116;-77
2022/08/25 03:42:50;;;;;;;0.20;0.20;;;15.30;99.90;;;;;;5031927;28;20129;-76
2022/08/25 03:45:19;;;;;;;0.20;0.20;;;15.20;99.90;;;;;;5032402;28;20492;-75
2022/08/25 03:47:48;;;;;;;0.15;0.15;;;15.20;99.90;;;;;;5035720;28;20033;-76
2022/08/25 03:50:19;;;;;;;0.35;0.35;;;15.20;99.90;;;;;;5033826;28;20017;-73
2022/08/25 03:52:54;;;;;;;0.22;0.22;;;15.20;99.90;;;;;;5044781;28;20118;-76
2022/08/25 03:55:22;;;;;;;;;;;15.10;99.90;;;;;;5038998;28;20033;-77
2022/08/25 03:57:50;;;;;;;0.15;0.15;;;15.10;99.90;;;;;;5050610;28;19908;-77
2022/08/25 04:00:19;;;;;;;0.43;0.20;;;15.10;99.90;;;;;;5040368;28;20519;-77
2022/08/25 04:02:48;;;;;;;0.30;0.25;;;15.00;99.90;;;;;;5043707;28;20142;-72
2022/08/25 04:05:16;;;;;;;3.22;0.38;;;15.00;99.90;;;;;;5047722;28;20025;-75
2022/08/25 04:07:43;;;;;;;0.70;0.30;;;15.00;99.90;;;;;;5037329;28;20036;-77
2022/08/25 04:10:11;;;;;;;1.00;0.30;;;15.00;99.90;;;;;;5048661;28;20025;-78
2022/08/25 04:12:39;;;;;;;0.30;0.30;;;14.90;99.90;;;;;;5040402;28;20045;-79
2022/08/25 04:15:09;;;;;;;0.20;0.20;;;14.90;99.90;;;;;;5033833;28;20045;-77
2022/08/25 04:17:40;;;;;;;0.85;0.22;;;14.80;99.90;;;;;;5033705;28;20029;-76
2022/08/25 04:20:10;;;;;;;0.57;0.28;;;14.80;99.90;;;;;;5033847;28;20018;-77
2022/08/25 04:22:38;;;;;;;0.20;0.20;;;14.80;99.90;;;;;;5034089;28;20022;-77
2022/08/25 04:25:07;;;;;;;0.38;0.30;;;14.80;99.90;;;;;;5033321;28;20034;-77
2022/08/25 04:27:36;;;;;;;0.57;0.30;;;14.80;99.90;;;;;;5033092;28;20465;-78
2022/08/25 04:30:05;;;;;;;0.30;0.20;;;14.80;99.90;;;;;;5033866;28;20025;-77
2022/08/25 04:32:34;;;;;;;1.65;0.20;;;14.80;99.90;;;;;;5033793;28;20034;-75
2022/08/25 04:35:03;;;;;;;0.40;0.40;;;14.80;99.90;;;;;;5033083;28;20045;-74
2022/08/25 04:37:32;;;;;;;1.58;0.40;;;14.70;99.90;;;;;;5033652;28;20080;-78
2022/08/25 04:39:59;;;;;;;1.30;0.52;;;14.60;99.90;;;;;;5015883;28;20711;-78
2022/08/25 04:42:27;;;;;;;0.20;0.20;;;14.60;99.90;;;;;;5015911;28;20025;-77
2022/08/25 04:44:55;;;;;;;1.10;0.30;;;14.50;99.90;;;;;;5033028;28;20410;-78
2022/08/25 04:47:23;;;;;;;0.57;0.40;;;14.40;99.90;;;;;;5033426;28;20474;-79
2022/08/25 04:49:51;;;;;;;1.05;0.30;;;14.30;99.90;;;;;;5033499;28;20075;-78
2022/08/25 04:52:19;;;;;;;0.30;0.30;;;14.30;99.90;;;;;;5033466;28;20491;-78
2022/08/25 04:54:47;;;;;;;2.60;0.40;;;14.30;99.90;;;;;;5032703;28;20037;-76
2022/08/25 04:57:15;;;;;;;0.88;0.55;;;14.20;99.90;;;;;;5032622;28;20088;-78
2022/08/25 04:59:42;;;;;;;0.80;0.40;;;14.20;99.90;;;;;;5030621;28;20377;-76
2022/08/25 05:02:11;;;;;;;0.90;0.63;;;14.20;99.90;;;;;;5036673;28;20120;-80
2022/08/25 05:04:38;;;;;;;1.10;0.35;;;14.20;99.90;;;;;;5053053;28;20032;-77
2022/08/25 05:07:05;;;;;;;0.52;0.30;;;14.10;99.90;;;;;;5052650;28;20056;-79
2022/08/25 05:09:33;;;;;;;0.75;0.32;;;14.10;99.90;;;;;;5052968;28;20025;-80
2022/08/25 05:12:01;;;;;;;0.57;0.40;;;14.20;99.90;;;;;;5052944;28;20051;-79
2022/08/25 05:14:29;;;;;;;3.65;0.63;;;14.10;99.90;;;;;;5052922;28;20485;-80
2022/08/25 05:16:57;;;;;;;0.52;0.40;;;14.10;99.90;;;;;;5033459;28;20035;-74
2022/08/25 05:19:25;;;;;;;1.45;0.43;;;14.10;99.90;;;;;;5039813;28;20525;-81
2022/08/25 05:21:52;;;;;;;3.13;0.40;;;14.10;99.90;;;;;;5050011;28;20386;-76
2022/08/25 05:24:21;;;;;;;0.60;0.35;;;14.10;99.90;;;;;;5036411;28;20039;-81
2022/08/25 05:26:48;;;;;;;5.95;0.70;;;14.10;99.90;;;;;;5047448;28;20028;-81
2022/08/25 05:29:16;;;;;;;0.70;0.40;;;14.10;99.90;;;;;;5037613;28;20381;-81
2022/08/25 05:31:44;;;;;;;0.52;0.35;;;14.10;99.90;;;;;;5041415;28;20425;-80
2022/08/25 05:34:11;;;;;;;1.55;0.32;;;14.10;99.90;;;;;;5045268;28;20036;-81
2022/08/25 05:36:42;;;;;;;0.70;0.30;;;14.10;99.90;;;;;;5034567;28;20057;-81
2022/08/25 05:39:09;;;;;;;1.00;0.52;;;14.10;99.90;;;;;;5038011;28;20816;-81
2022/08/25 05:41:37;;;;;;;0.60;0.50;;;14.10;99.90;;;;;;5045759;28;20060;-81
2022/08/25 05:44:05;;;;;;;1.73;0.52;;;14.10;99.90;;;;;;5047633;28;20108;-82
2022/08/25 05:46:32;;;;;;;0.32;0.20;;;14.10;99.90;;;;;;5038316;28;20021;-82
2022/08/25 05:49:00;;;;;;;0.25;0.20;;;14.10;99.90;;;;;;5050997;28;20024;-79
2022/08/25 05:51:28;;;;;;;1.23;0.40;;;14.10;99.90;;;;;;5043303;28;20020;-81
2022/08/25 05:53:55;;;;;;;1.65;0.40;;;14.10;99.90;;;;;;5037545;28;20091;-81
2022/08/25 05:56:23;;;;;;;1.33;0.40;;;14.10;99.90;;;;;;5035224;28;20033;-78
2022/08/25 05:58:50;;;;;;;0.85;0.63;;;14.10;99.90;;;;;;5035197;28;20541;-80
2022/08/25 06:04:09;;;;;;;3.13;0.57;;;14.10;99.90;;;;;;5036609;28;20052;-82
2022/08/25 06:06:36;;;;;;;0.60;0.30;;;14.10;99.90;;;;;;5035623;28;20029;-79
2022/08/25 06:09:05;;;;;;;0.85;0.50;;;14.00;99.90;;;;;;5017938;28;20021;-78
2022/08/25 06:11:33;;;;;;;0.73;0.52;;;14.00;99.90;;;;;;5036673;28;20033;-79
2022/08/25 06:14:00;;;;;;;1.42;0.52;;;14.00;99.90;;;;;;5035632;28;20083;-79
2022/08/25 06:16:27;;;;;;;0.77;0.70;;;14.00;99.90;;;;;;5035993;28;20022;-79
2022/08/25 06:18:54;;;;;;;1.55;0.65;;;14.00;99.90;;;;;;5035660;28;20064;-79
2022/08/25 06:21:22;;;;;;;2.83;0.75;;;13.90;99.90;;;;;;5036019;28;20029;-80
2022/08/25 06:23:49;;;;;;;2.15;1.08;;;13.90;99.90;;;;;;5043649;28;20433;-79
2022/08/25 06:26:17;;;;;;;1.05;0.70;;;13.90;99.90;;;;;;5034955;28;20021;-80
2022/08/25 06:28:44;;;;;;;2.42;0.70;;;13.90;99.90;;;;;;5034980;28;20020;-84
2022/08/25 06:31:11;;;;;;;3.10;0.80;;;13.90;99.90;;;;;;5043054;28;20090;-80
2022/08/25 06:33:39;;;;;;;2.38;1.00;;;14.00;99.90;;;;;;5035689;28;20018;-81
2022/08/25 06:36:07;;;;;;;1.10;0.50;;;13.90;99.90;;;;;;5036545;28;20605;-77
2022/08/25 06:38:35;;;;;;;0.98;0.50;;;13.90;99.90;;;;;;5042203;28;20021;-81
2022/08/25 06:41:05;;;;;;;0.82;0.50;;;13.90;99.90;;;;;;5045997;28;20132;-80
2022/08/25 06:43:33;;;;;;;1.88;0.50;;;13.90;99.90;;;;;;5033699;28;20033;-81
2022/08/25 06:46:12;;;;;;;1.05;0.60;;;13.80;99.90;;;;;;5034404;28;20028;-81
2022/08/25 06:48:41;;;;;;;4.40;0.60;;;13.80;99.90;;;;;;5035481;28;20394;-81
2022/08/25 06:51:10;;;;;;;1.52;0.70;;;13.80;99.90;;;;;;5038274;28;20482;-82
2022/08/25 06:53:38;;;;;;;0.80;0.50;;;13.80;99.90;;;;;;5039705;28;20029;-79
2022/08/25 06:56:06;;;;;;;0.95;0.40;;;13.80;99.90;;;;;;5040454;28;20028;-82
2022/08/25 06:58:33;;;;;;;1.45;0.65;;;13.70;99.90;;;;;;5036017;28;20060;-82
2022/08/25 07:01:22;;;;;;;0.63;0.50;;;13.70;99.90;;;;;;5037873;28;20053;-81
2022/08/25 07:03:58;;;;;;;0.95;0.57;;;13.60;99.90;;;;;;5035244;28;20073;-82
2022/08/25 07:06:27;;;;;;;1.20;0.52;;;13.60;99.90;;;;;;5030724;28;20021;-76
2022/08/25 07:08:55;;;;;;;0.95;0.45;;;13.60;99.90;;;;;;5015098;28;20013;-80
2022/08/25 07:11:23;;;;;;;0.90;0.50;;;13.50;99.90;;;;;;5037216;28;20025;-79
2022/08/25 07:13:50;;;;;;;2.35;0.57;;;13.40;99.90;;;;;;5040089;28;20037;-80
2022/08/25 07:16:20;;;;;;;1.25;0.75;;;13.40;99.90;;;;;;5045239;28;20085;-75
2022/08/25 07:18:48;;;;;;;1.38;1.00;;;13.40;99.90;;;;;;5049533;28;20131;-81
2022/08/25 07:21:15;;;;;;;0.75;0.50;;;13.30;99.90;;;;;;5043942;28;20029;-80
2022/08/25 07:23:43;;;;;;;1.25;0.70;;;13.30;99.90;;;;;;5049728;28;20144;-81
2022/08/25 07:26:13;;;;;;;1.35;0.95;;;13.30;99.90;;;;;;5048244;28;20022;-79
2022/08/25 07:28:41;;;;;;;1.25;0.75;;;13.20;99.90;;;;;;5031346;28;20017;-77
2022/08/25 07:31:08;;;;;;;2.03;0.73;;;13.20;99.90;;;;;;5035165;28;20036;-81
2022/08/25 07:33:36;;;;;;;0.70;0.40;;;13.10;99.90;;;;;;5034246;28;20029;-75
2022/08/25 07:36:04;;;;;;;1.40;0.60;;;13.10;99.90;;;;;;5033339;28;20056;-74
2022/08/25 07:38:31;;;;;;;1.33;0.65;;;13.10;99.90;;;;;;5035799;28;20017;-77
2022/08/25 07:41:03;;;;;;;2.90;0.80;;;13.00;99.90;;;;;;5030882;28;20032;-77
2022/08/25 07:43:30;;;;;;;1.50;1.00;;;13.00;99.90;;;;;;5035251;28;20025;-79
2022/08/25 07:45:57;;;;;;;1.45;0.70;;;13.00;99.90;;;;;;5030958;28;20014;-81
2022/08/25 07:48:25;;;;;;;3.30;1.08;;;12.90;99.90;;;;;;5033503;28;20021;-81
2022/08/25 07:50:52;;;;;;;1.90;1.00;;;12.90;99.90;;;;;;5034435;28;20503;-81
2022/08/25 07:53:20;;;;;;;3.17;1.42;;;12.80;99.90;;;;;;5032914;28;20029;-79
2022/08/25 07:55:47;;;;;;;4.38;1.10;;;12.80;99.90;;;;;;5037893;28;20074;-81
2022/08/25 07:58:15;;;;;;;2.08;1.30;;;12.80;99.90;;;;;;5035321;28;20102;-78
2022/08/25 08:00:43;;;;;;;4.38;1.00;;;12.80;99.90;;;;;;5036059;28;20394;-80
2022/08/25 08:03:10;;;;;;;3.92;0.80;;;12.70;99.90;;;;;;5034148;28;20048;-77
2022/08/25 08:05:40;;;;;;;3.08;0.98;;;12.70;99.90;;;;;;5034562;28;20060;-81
2022/08/25 08:08:08;;;;;;;1.10;0.70;;;12.70;99.90;;;;;;5033531;28;20024;-80
2022/08/25 08:10:38;;;;;;;1.90;0.90;;;12.60;99.90;;;;;;5032075;28;20109;-70
2022/08/25 08:13:06;;;;;;;1.63;1.10;;;12.60;99.90;;;;;;5030741;28;20022;-78
2022/08/25 08:15:34;;;;;;;1.50;1.40;;;12.60;99.90;;;;;;5030862;28;20604;-80
2022/08/25 08:18:01;;;;;;;2.05;1.65;;;12.50;99.90;;;;;;5035368;28;20025;-80
2022/08/25 08:20:32;;;;;;;3.45;1.85;;;12.40;99.90;;;;;;5033847;28;20021;-78
2022/08/25 08:23:00;;;;;;;3.13;1.92;;;12.40;99.90;;;;;;4999441;28;20458;-75
2022/08/25 08:25:27;;;;;;;4.75;1.77;;;12.40;99.90;;;;;;5034174;28;20028;-81
2022/08/25 08:27:56;;;;;;;3.35;1.55;;;12.30;99.90;;;;;;5034391;28;20028;-74
2022/08/25 08:30:24;;;;;;;2.63;0.77;;;12.30;99.90;;;;;;5033498;28;20447;-79
2022/08/25 08:32:51;;;;;;;2.67;1.25;;;12.20;99.90;;;;;;5032988;28;20075;-77
2022/08/25 08:35:18;;;;;;;5.07;0.80;;;12.20;99.90;;;;;;5035599;28;20107;-74
2022/08/25 08:37:46;;;;;;;1.55;0.80;;;12.20;99.90;;;;;;5034097;28;20032;-73
2022/08/25 08:40:19;;;;;;;4.40;0.90;;;12.10;99.90;;;;;;5034203;28;20525;-78
2022/08/25 08:42:53;;;;;;;2.90;0.80;;;12.10;99.90;;;;;;5035214;28;20034;-78
2022/08/25 08:45:43;;;;;;;3.15;1.55;;;12.10;99.90;;;;;;5036001;28;20060;-78
2022/08/25 08:48:26;;;;;;;2.55;1.50;;;12.10;99.90;;;;;;5031372;28;20100;-76
2022/08/25 08:51:12;;;;;;;2.85;1.98;;;12.00;99.90;;;;;;5035059;28;20470;-75
2022/08/25 08:53:39;;;;;;;5.40;3.05;;;12.00;99.90;;;;;;5033447;28;20036;-77
2022/08/25 08:56:10;;;;;;;6.28;3.40;;;11.90;99.90;;;;;;5033120;28;20083;-80
2022/08/25 08:58:43;;;;;;;4.63;3.00;;;11.90;99.90;;;;;;5035360;28;20026;-81
2022/08/25 09:01:18;;;;;;;5.03;2.35;;;11.90;99.90;;;;;;5036999;28;20437;-79
2022/08/25 09:03:51;;;;;;;3.28;2.10;;;11.90;99.90;;;;;;5033747;28;20116;-82
2022/08/25 09:06:32;;;;;;;3.95;1.77;;;11.90;99.90;;;;;;5034169;28;20522;-81
2022/08/25 09:09:02;;;;;;;2.38;1.50;;;11.90;99.90;;;;;;5030981;28;20100;-81
2022/08/25 09:11:43;;;;;;;2.08;1.50;;;11.90;99.90;;;;;;5031924;28;20439;-79
2022/08/25 09:14:26;;;;;;;3.25;1.60;;;11.90;99.90;;;;;;5034447;28;20036;-81
2022/08/25 09:16:57;;;;;;;2.65;1.58;;;11.80;99.90;;;;;;5036636;28;20377;-81
2022/08/25 09:19:41;;;;;;;4.90;1.63;;;11.80;99.90;;;;;;5034222;28;20036;-81
2022/08/25 09:22:15;;;;;;;2.10;1.13;;;11.80;99.90;;;;;;5034727;28;20025;-82
2022/08/25 09:25:20;;;;;;;10.98;1.75;;;11.70;99.90;;;;;;5033412;28;20068;-82
2022/08/25 09:27:53;;;;;;;3.88;1.67;;;11.70;99.90;;;;;;5025382;28;20041;-81
2022/08/25 09:30:22;;;;;;;3.75;1.80;;;11.60;99.90;;;;;;5034611;28;20437;-81
2022/08/25 09:33:02;;;;;;;3.17;2.03;;;11.70;99.90;;;;;;5032185;28;20373;-77
2022/08/25 09:35:33;;;;;;;3.17;2.10;;;11.60;99.90;;;;;;5032791;28;20034;-82
2022/08/25 09:38:08;;;;;;;3.83;2.70;;;11.60;99.90;;;;;;5032493;28;20018;-82
2022/08/25 09:40:42;;;;;;;3.85;2.63;;;11.60;99.90;;;;;;5032468;28;20033;-81
2022/08/25 09:43:27;;;;;;;4.60;2.63;;;11.50;99.90;;;;;;5032007;28;20032;-81
2022/08/25 09:46:11;;;;;;;6.30;2.30;;;11.50;99.90;;;;;;5033381;28;20501;-78
2022/08/25 09:48:54;;;;;;;3.55;2.75;;;11.50;99.90;;;;;;5032712;28;20489;-79
2022/08/25 09:51:34;;;;;;;5.40;2.42;;;11.50;99.90;;;;;;5031398;28;20025;-81
2022/08/25 09:54:16;;;;;;;9.05;2.33;;;11.50;99.90;;;;;;5034610;28;20030;-76
2022/08/25 09:57:00;;;;;;;4.57;2.10;;;11.40;99.90;;;;;;5033710;28;20014;-80
2022/08/25 09:59:34;;;;;;;4.43;2.20;;;11.40;99.90;;;;;;5032341;28;20033;-81
2022/08/25 10:02:03;;;;;;;5.55;2.58;;;11.30;99.90;;;;;;5031199;28;20399;-80
2022/08/25 10:04:35;;;;;;;5.90;2.90;;;11.30;99.90;;;;;;5031503;28;20071;-80
2022/08/25 10:07:20;;;;;;;4.75;2.60;;;11.30;99.90;;;;;;5031245;28;20083;-74
2022/08/25 10:10:00;;;;;;;4.35;2.83;;;11.30;99.90;;;;;;5009833;28;20026;-81
2022/08/25 10:12:39;;;;;;;7.45;3.00;;;11.30;99.90;;;;;;5031501;28;20034;-80
2022/08/25 10:15:37;;;;;;;4.43;2.72;;;11.30;99.90;;;;;;5033149;28;20079;-80
2022/08/25 10:18:26;;;;;;;4.75;2.63;;;11.30;99.90;;;;;;5021784;28;20030;-82
2022/08/25 10:21:06;;;;;;;5.15;2.60;;;11.40;99.90;;;;;;5031299;28;20026;-71
2022/08/25 10:23:50;;;;;;;5.18;2.00;;;11.40;99.90;;;;;;5030921;28;20032;-79
2022/08/25 10:26:40;;;;;;;4.05;2.72;;;11.40;99.90;;;;;;5033336;28;20036;-74
2022/08/25 10:29:48;;;;;;;4.03;2.42;;;11.40;99.90;;;;;;5033345;28;20368;-73
2022/08/25 10:32:28;;;;;;;5.18;2.38;;;11.50;99.90;;;;;;5034640;28;20025;-81
2022/08/25 10:34:58;;;;;;;3.78;2.08;;;11.50;99.90;;;;;;5034802;28;20034;-81
2022/08/25 10:37:44;;;;;;;6.70;2.10;;;11.50;99.90;;;;;;5033916;28;20026;-77
2022/08/25 10:40:21;;;;;;;5.20;2.23;;;11.50;99.90;;;;;;5033843;28;20787;-79
2022/08/25 10:43:36;;;;;;;6.43;2.63;;;11.40;99.90;;;;;;5033907;28;20025;-81
2022/08/25 10:46:31;;;;;;;2.90;1.83;;;11.40;99.90;;;;;;5030969;28;20034;-77
2022/08/25 10:49:13;;;;;;;4.60;2.30;;;11.30;99.90;;;;;;5033811;28;20075;-77
2022/08/25 10:52:11;;;;;;;3.78;2.05;;;11.30;99.90;;;;;;5034077;28;20551;-78
2022/08/25 10:55:04;;;;;;;4.32;2.45;;;11.30;99.90;;;;;;5033796;28;20037;-81
2022/08/25 10:57:58;;;;;;;3.80;2.10;;;11.30;99.90;;;;;;5032963;28;20522;-81
2022/08/25 11:00:37;;;;;;;5.80;2.38;;;11.30;99.90;;;;;;5035186;28;20032;-79
2022/08/25 11:03:11;;;;;;;4.00;1.95;;;11.40;99.90;;;;;;5015480;28;20512;-81
2022/08/25 11:06:02;;;;;;;6.15;2.22;;;11.40;99.90;;;;;;5033401;28;20037;-79
2022/08/25 11:08:37;;;;;;;3.75;2.05;;;11.50;99.90;;;;;;5030282;28;20018;-80
2022/08/25 11:11:12;;;;;;;7.27;2.57;;;11.50;99.90;;;;;;5035085;28;20029;-81
2022/08/25 11:14:12;;;;;;;4.53;2.00;;;11.60;99.90;;;;;;5035769;28;20043;-77
2022/08/25 11:16:50;;;;;;;4.10;1.85;;;11.60;99.90;;;;;;5027815;28;20113;-78
2022/08/25 11:19:39;;;;;;;5.63;2.55;;;11.60;99.90;;;;;;5036502;28;20025;-79
2022/08/25 11:22:24;;;;;;;3.30;1.85;;;11.60;99.90;;;;;;5034838;28;20079;-82
2022/08/25 11:24:56;;;;;;;3.15;2.17;;;11.60;99.90;;;;;;5032258;28;20448;-81
2022/08/25 11:27:33;;;;;;;2.35;1.90;;;11.60;99.90;;;;;;5033887;28;20116;-80
2022/08/25 11:30:11;;;;;;;4.97;2.40;;;11.60;99.90;;;;;;5031979;28;20040;-80
2022/08/25 11:32:40;;;;;;;4.97;2.65;;;11.60;99.90;;;;;;5032430;28;20029;-78
2022/08/25 11:35:10;;;;;;;7.00;2.28;;;11.60;99.90;;;;;;5034433;28;20116;-77
2022/08/25 11:38:03;;;;;;;4.15;2.25;;;11.50;99.90;;;;;;5028555;28;20029;-81
2022/08/25 11:40:56;;;;;;;5.70;2.58;;;11.50;99.90;;;;;;5000559;28;20026;-79
2022/08/25 11:43:38;;;;;;;4.63;2.20;;;11.50;99.90;;;;;;5031274;28;20438;-81
2022/08/25 11:46:27;;;;;;;4.03;1.88;;;11.50;99.90;;;;;;5033638;28;20022;-81
2022/08/25 11:49:24;;;;;;;7.93;2.17;;;11.50;99.90;;;;;;5033174;28;20113;-80
2022/08/25 11:51:52;;;;;;;2.47;1.60;;;11.40;99.90;;;;;;5030001;28;20030;-81
2022/08/25 11:54:43;;;;;;;2.70;1.83;;;11.40;99.90;;;;;;5033395;28;20414;-75
2022/08/25 11:57:26;;;;;;;3.55;1.80;;;11.40;99.90;;;;;;5025955;28;20024;-80
2022/08/25 11:59:54;;;;;;;3.13;1.88;;;11.40;99.90;;;;;;5051910;28;20028;-74
2022/08/25 12:02:42;;;;;;;3.92;1.65;;;11.40;99.90;;;;;;5052143;28;20049;-75
2022/08/25 12:05:22;;;;;;;5.10;1.98;;;11.40;99.90;;;;;;5051651;28;20535;-75
2022/08/25 12:10:56;;;;;;;4.68;1.90;;;11.40;99.90;;;;;;5052727;28;20028;-77
2022/08/25 12:13:47;;;;;;;4.13;1.80;;;11.40;99.90;;;;;;5051827;28;20021;-72
2022/08/25 12:16:42;;;;;;;2.88;1.67;;;11.50;99.90;;;;;;5041784;28;20478;-78
2022/08/25 12:19:28;;;;;;;6.28;2.30;;;11.60;99.90;;;;;;5032814;28;20038;-77
2022/08/25 12:22:17;;;;;;;2.67;1.40;;;11.60;99.90;;;;;;5033728;28;20112;-80
2022/08/25 12:25:05;;;;;;;2.75;1.58;;;11.60;99.90;;;;;;5033729;28;20032;-81
2022/08/25 12:27:55;;;;;;;4.45;2.17;;;11.60;99.90;;;;;;5033778;28;20436;-80
2022/08/25 12:30:47;;;;;;;2.78;1.55;;;11.60;99.90;;;;;;5033629;28;20091;-80
2022/08/25 12:33:50;;;;;;;2.75;1.23;;;11.60;99.90;;;;;;5033309;28;20032;-79
2022/08/25 12:36:30;;;;;;;3.45;1.65;;;11.50;99.90;;;;;;5033668;28;20033;-77
2022/08/25 12:39:19;;;;;;;5.03;1.33;;;11.60;99.90;;;;;;5033430;28;20071;-78
2022/08/25 12:42:00;;;;;;;4.32;1.70;;;11.50;99.90;;;;;;5033358;28;20060;-76
2022/08/25 12:44:45;;;;;;;2.70;1.30;;;11.50;99.90;;;;;;5033660;28;20022;-80
2022/08/25 12:47:26;;;;;;;2.43;1.27;;;11.50;99.90;;;;;;5033095;28;20025;-80
2022/08/25 12:50:13;;;;;;;1.77;1.35;;;11.50;99.90;;;;;;5033066;28;20040;-79
2022/08/25 12:52:41;;;;;;;3.92;1.73;;;11.50;99.90;;;;;;5033370;28;20017;-80
2022/08/25 12:55:11;;;;;;;2.78;1.38;;;11.50;99.90;;;;;;5033091;28;20033;-81
2022/08/25 12:57:59;;;;;;;2.78;1.40;;;11.40;99.90;;;;;;5033006;28;20026;-81
2022/08/25 13:00:36;;;;;;;5.32;2.03;;;11.40;99.90;;;;;;5033386;28;20060;-80
2022/08/25 13:03:42;;;;;;;8.57;2.30;;;11.40;99.90;;;;;;5032353;28;20040;-77
2022/08/25 13:06:31;;;;;;;3.58;1.27;;;11.40;99.90;;;;;;5001974;28;20069;-81
2022/08/25 13:09:29;;;;;;;3.20;1.35;;;11.30;99.90;;;;;;5028783;28;20021;-80
2022/08/25 13:12:15;;;;;;;2.08;1.10;;;11.30;99.90;;;;;;5031027;28;20029;-70
2022/08/25 13:14:45;;;;;;;3.08;1.70;;;11.30;99.90;;;;;;5035108;28;20025;-71
2022/08/25 13:17:34;;;;;;;6.65;1.70;;;11.30;99.90;;;;;;5032086;28;20083;-76
2022/08/25 13:20:31;;;;;;;2.67;1.67;;;11.30;99.90;;;;;;5034675;28;20097;-80
2022/08/25 13:23:00;;;;;;;3.03;1.45;;;11.30;99.90;;;;;;5015052;28;20029;-77
2022/08/25 13:25:31;;;;;;;3.08;1.05;;;11.30;99.90;;;;;;5034767;28;20029;-81
2022/08/25 13:28:02;;;;;;;4.05;1.25;;;11.30;99.90;;;;;;5036242;28;20059;-80
2022/08/25 13:30:35;;;;;;;1.83;1.10;;;11.30;99.90;;;;;;5033856;28;20026;-78